createdAt,value
2022-12-14T00:00:09.557Z,9.98
2022-12-14T00:02:43.609Z,10.50
2022-12-14T00:05:10.567Z,9.00
2022-12-14T00:07:37.345Z,10.05
2022-12-14T00:10:17.490Z,10.23
2022-12-14T00:12:48.650Z,8.52
2022-12-14T00:15:15.457Z,10.05
2022-12-14T00:17:48.471Z,10.02
2022-12-14T00:20:15.338Z,9.55
2022-12-14T00:22:42.255Z,10.40
2022-12-14T00:25:15.451Z,8.45
2022-12-14T00:27:46.359Z,8.40
2022-12-14T00:30:24.495Z,7.95
2022-12-14T00:32:56.851Z,7.68
2022-12-14T00:35:23.923Z,8.10
2022-12-14T00:38:05.450Z,8.43
2022-12-14T00:40:46.507Z,7.50
2022-12-14T00:43:13.407Z,8.02
2022-12-14T00:45:46.534Z,7.20
2022-12-14T00:48:21.508Z,6.78
2022-12-14T00:50:56.522Z,7.60
2022-12-14T00:53:24.426Z,7.10
2022-12-14T00:55:57.498Z,7.07
2022-12-14T00:58:25.454Z,7.00
2022-12-14T01:01:14.642Z,7.18
2022-12-14T01:03:49.568Z,6.97
2022-12-14T01:06:18.880Z,8.00
2022-12-14T01:08:46.863Z,6.93
2022-12-14T01:11:21.538Z,9.13
2022-12-14T01:13:49.446Z,8.73
2022-12-14T01:16:23.580Z,6.85
2022-12-14T01:18:50.497Z,7.25
2022-12-14T01:21:27.570Z,8.13
2022-12-14T01:23:59.760Z,8.40
2022-12-14T01:29:08.045Z,9.52
2022-12-14T01:31:43.555Z,7.95
2022-12-14T01:34:15.612Z,8.13
2022-12-14T01:36:48.544Z,7.57
2022-12-14T01:39:16.586Z,8.57
2022-12-14T01:41:56.587Z,8.18
2022-12-14T01:44:23.421Z,8.07
2022-12-14T01:47:12.156Z,7.80
2022-12-14T01:50:15.548Z,7.72
2022-12-14T01:55:41.637Z,6.70
2022-12-14T01:58:26.599Z,7.57
2022-12-14T02:01:00.935Z,7.78
2022-12-14T02:03:42.635Z,7.57
2022-12-14T02:06:17.139Z,8.05
2022-12-14T02:08:54.679Z,8.88
2022-12-14T02:11:42.631Z,7.10
2022-12-14T02:14:09.402Z,8.02
2022-12-14T02:16:43.591Z,9.07
2022-12-14T02:19:10.321Z,8.35
2022-12-14T02:22:08.662Z,7.68
2022-12-14T02:24:54.135Z,7.88
2022-12-14T02:27:45.652Z,8.57
2022-12-14T02:30:24.964Z,8.50
2022-12-14T02:33:22.645Z,10.45
2022-12-14T02:36:01.627Z,8.35
2022-12-14T02:38:43.703Z,9.38
2022-12-14T02:41:38.232Z,9.55
2022-12-14T02:44:15.642Z,9.02
2022-12-14T02:47:09.665Z,8.60
2022-12-14T02:50:20.700Z,8.80
2022-12-14T02:53:04.690Z,8.98
2022-12-14T02:55:43.703Z,9.25
2022-12-14T02:58:20.731Z,8.25
2022-12-14T03:00:54.904Z,9.15
2022-12-14T03:03:22.963Z,9.40
2022-12-14T03:06:04.712Z,8.10
2022-12-14T03:08:34.381Z,8.73
2022-12-14T03:11:12.740Z,8.45
2022-12-14T03:13:45.358Z,8.23
2022-12-14T03:16:35.753Z,8.00
2022-12-14T03:19:13.940Z,9.48
2022-12-14T03:22:00.749Z,7.82
2022-12-14T03:24:36.893Z,8.73
2022-12-14T03:27:19.764Z,7.95
2022-12-14T03:29:59.737Z,8.60
2022-12-14T03:32:30.652Z,9.27
2022-12-14T03:35:10.723Z,8.82
2022-12-14T03:37:53.433Z,8.55
2022-12-14T03:40:35.801Z,8.07
2022-12-14T03:43:18.715Z,7.90
2022-12-14T03:46:29.792Z,8.75
2022-12-14T03:49:13.776Z,8.27
2022-12-14T03:52:12.773Z,8.23
2022-12-14T03:54:50.790Z,8.48
2022-12-14T03:57:59.784Z,8.00
2022-12-14T04:00:36.852Z,7.63
2022-12-14T04:03:18.860Z,7.15
2022-12-14T04:05:55.812Z,7.35
2022-12-14T04:08:42.413Z,7.78
2022-12-14T04:11:38.859Z,7.75
2022-12-14T04:14:37.066Z,7.20
2022-12-14T04:17:35.811Z,8.00
2022-12-14T04:20:31.219Z,9.75
2022-12-14T04:23:10.820Z,9.68
2022-12-14T04:26:05.464Z,9.57
2022-12-14T04:29:15.825Z,8.60
2022-12-14T04:31:50.184Z,9.45
2022-12-14T04:34:26.800Z,9.90
2022-12-14T04:37:00.102Z,9.65
2022-12-14T04:39:59.816Z,10.20
2022-12-14T04:42:33.071Z,9.45
2022-12-14T04:45:21.866Z,9.52
2022-12-14T04:47:57.112Z,8.57
2022-12-14T04:50:40.899Z,9.27
2022-12-14T04:53:17.610Z,9.32
2022-12-14T04:55:59.852Z,9.63
2022-12-14T04:58:29.690Z,9.23
2022-12-14T05:01:17.955Z,11.38
2022-12-14T05:03:54.283Z,11.00
2022-12-14T05:07:10.871Z,10.30
2022-12-14T05:09:51.926Z,10.65
2022-12-14T05:12:49.899Z,10.30
2022-12-14T05:15:30.919Z,11.57
2022-12-14T05:18:09.891Z,10.23
2022-12-14T05:20:42.901Z,10.95
2022-12-14T05:23:09.854Z,10.05
2022-12-14T05:25:42.920Z,10.25
2022-12-14T05:28:19.927Z,10.90
2022-12-14T05:30:48.958Z,10.63
2022-12-14T05:33:27.242Z,12.25
2022-12-14T05:35:54.199Z,11.40
2022-12-14T05:38:20.993Z,11.73
2022-12-14T05:40:53.961Z,12.25
2022-12-14T05:43:27.184Z,11.95
2022-12-14T05:46:02.017Z,10.95
2022-12-14T05:48:35.953Z,12.95
2022-12-14T05:51:11.707Z,12.13
2022-12-14T05:53:45.936Z,10.55
2022-12-14T05:56:19.956Z,11.30
2022-12-14T05:58:56.970Z,11.40
2022-12-14T06:01:23.917Z,12.70
2022-12-14T06:04:00.009Z,12.02
2022-12-14T06:06:26.938Z,10.57
2022-12-14T06:08:59.935Z,13.13
2022-12-14T06:11:28.294Z,13.18
2022-12-14T06:14:02.015Z,13.00
2022-12-14T06:16:28.940Z,11.63
2022-12-14T06:19:04.990Z,11.90
2022-12-14T06:21:39.208Z,11.67
2022-12-14T06:24:13.976Z,11.88
2022-12-14T06:26:47.018Z,11.25
2022-12-14T06:29:17.795Z,11.65
2022-12-14T06:31:51.983Z,11.77
2022-12-14T06:34:21.281Z,10.85
2022-12-14T06:36:51.769Z,10.98
2022-12-14T06:39:25.025Z,11.10
2022-12-14T06:41:51.964Z,11.25
2022-12-14T06:44:24.994Z,12.13
2022-12-14T06:46:51.948Z,10.50
2022-12-14T06:49:32.020Z,10.73
2022-12-14T06:51:58.819Z,10.90
2022-12-14T06:54:32.071Z,10.57
2022-12-14T06:56:58.827Z,10.10
2022-12-14T06:59:25.550Z,10.40
2022-12-14T07:01:59.205Z,11.07
2022-12-14T07:04:26.161Z,10.90
2022-12-14T07:07:05.075Z,10.88
2022-12-14T07:09:33.005Z,11.80
2022-12-14T07:12:07.179Z,11.52
2022-12-14T07:14:34.036Z,10.85
2022-12-14T07:17:01.009Z,10.18
2022-12-14T07:19:34.161Z,10.50
2022-12-14T07:22:05.187Z,10.30
2022-12-14T07:24:39.109Z,9.73
2022-12-14T07:27:06.260Z,9.48
2022-12-14T07:29:35.002Z,8.85
2022-12-14T07:32:08.102Z,9.38
2022-12-14T07:34:41.106Z,8.77
2022-12-14T07:37:07.880Z,9.73
2022-12-14T07:39:41.116Z,8.65
2022-12-14T07:42:08.222Z,8.70
2022-12-14T07:44:41.134Z,8.40
2022-12-14T07:47:09.057Z,9.98
2022-12-14T07:49:44.400Z,8.50
2022-12-14T07:52:22.404Z,9.75
2022-12-14T07:54:56.130Z,10.65
2022-12-14T07:57:32.078Z,10.10
2022-12-14T08:00:05.113Z,9.50
2022-12-14T08:02:32.585Z,9.73
2022-12-14T08:05:12.090Z,9.73
2022-12-14T08:07:46.179Z,9.73
2022-12-14T08:10:12.923Z,9.43
2022-12-14T08:12:40.108Z,9.38
2022-12-14T08:15:14.143Z,9.35
2022-12-14T08:17:40.919Z,9.90
2022-12-14T08:20:15.231Z,10.00
2022-12-14T08:22:48.146Z,9.52
2022-12-14T08:25:14.996Z,10.38
2022-12-14T08:27:44.455Z,10.18
2022-12-14T08:30:18.167Z,11.98
2022-12-14T08:32:44.983Z,12.20
2022-12-14T08:35:18.222Z,11.68
2022-12-14T08:37:51.264Z,11.82
2022-12-14T08:40:24.188Z,12.38
2022-12-14T08:42:54.019Z,11.25
2022-12-14T08:45:21.045Z,11.32
2022-12-14T08:48:00.183Z,11.82
2022-12-14T08:50:34.310Z,11.98
2022-12-14T08:53:07.261Z,11.07
2022-12-14T08:55:38.700Z,11.15
2022-12-14T08:58:06.611Z,11.73
2022-12-14T09:00:40.353Z,11.32
2022-12-14T09:03:14.353Z,11.85
2022-12-14T09:05:41.290Z,11.98
2022-12-14T09:08:14.407Z,10.43
2022-12-14T09:10:41.126Z,12.30
2022-12-14T09:13:08.622Z,12.00
2022-12-14T09:15:42.361Z,10.50
2022-12-14T09:18:11.497Z,11.65
2022-12-14T09:20:38.397Z,11.38
2022-12-14T09:23:18.290Z,11.50
2022-12-14T09:25:45.327Z,11.02
2022-12-14T09:28:13.068Z,12.05
2022-12-14T09:30:46.291Z,11.32
2022-12-14T09:33:13.049Z,11.40
2022-12-14T09:35:46.265Z,10.93
2022-12-14T09:38:13.066Z,11.75
2022-12-14T09:40:49.307Z,12.02
2022-12-14T09:43:41.003Z,10.90
2022-12-14T09:46:45.291Z,11.18
2022-12-14T09:49:29.895Z,10.20
2022-12-14T09:52:08.268Z,10.82
2022-12-14T09:54:38.057Z,10.40
2022-12-14T09:57:30.322Z,11.75
2022-12-14T09:59:57.301Z,12.32
2022-12-14T10:02:32.539Z,11.98
2022-12-14T10:05:12.023Z,12.00
2022-12-14T10:07:56.429Z,11.65
2022-12-14T10:10:38.303Z,13.10
2022-12-14T10:13:26.954Z,12.38
2022-12-14T10:16:20.384Z,10.38
2022-12-14T10:19:01.205Z,11.13
2022-12-14T10:22:05.344Z,11.43
2022-12-14T10:27:13.400Z,12.00
2022-12-14T10:30:00.246Z,11.45
2022-12-14T10:32:48.363Z,12.05
2022-12-14T10:35:26.283Z,11.15
2022-12-14T10:38:34.413Z,10.57
2022-12-14T10:41:22.151Z,8.95
2022-12-14T10:44:30.422Z,9.57
2022-12-14T10:47:16.796Z,12.02
2022-12-14T10:50:02.404Z,10.52
2022-12-14T10:52:41.445Z,11.13
2022-12-14T10:55:42.452Z,10.32
2022-12-14T10:58:19.377Z,9.20
2022-12-14T11:00:52.240Z,10.88
2022-12-14T11:03:25.529Z,9.48
2022-12-14T11:06:14.440Z,9.02
2022-12-14T11:08:48.371Z,10.50
2022-12-14T11:11:27.515Z,10.63
2022-12-14T11:14:24.426Z,10.35
2022-12-14T11:16:54.937Z,10.82
2022-12-14T11:19:31.494Z,10.20
2022-12-14T11:22:14.727Z,8.73
2022-12-14T11:24:55.415Z,11.02
2022-12-14T11:27:28.431Z,11.40
2022-12-14T11:30:01.524Z,11.40
2022-12-14T11:32:32.869Z,12.70
2022-12-14T11:35:06.466Z,11.80
2022-12-14T11:37:35.596Z,12.55
2022-12-14T11:40:13.574Z,12.98
2022-12-14T11:42:49.213Z,12.05
2022-12-14T11:45:31.502Z,11.65
2022-12-14T11:48:13.623Z,12.55
2022-12-14T11:50:49.469Z,11.95
2022-12-14T11:53:30.481Z,12.05
2022-12-14T11:56:06.525Z,12.98
2022-12-14T11:58:48.317Z,13.65
2022-12-14T12:01:24.792Z,13.27
2022-12-14T12:03:56.942Z,11.90
2022-12-14T12:06:35.556Z,14.30
2022-12-14T12:09:08.948Z,13.23
2022-12-14T12:11:42.557Z,12.85
2022-12-14T12:14:48.523Z,11.85
2022-12-14T12:17:26.614Z,11.43
2022-12-14T12:19:53.544Z,10.23
2022-12-14T12:22:21.733Z,9.02
2022-12-14T12:25:30.884Z,9.38
2022-12-14T12:28:28.966Z,8.90
2022-12-14T12:31:10.952Z,9.93
2022-12-14T12:34:08.876Z,9.20
2022-12-14T12:36:38.483Z,8.15
2022-12-14T12:39:22.557Z,9.88
2022-12-14T12:42:03.570Z,9.50
2022-12-14T12:44:59.590Z,9.85
2022-12-14T12:48:02.804Z,9.10
2022-12-14T12:50:43.625Z,9.20
2022-12-14T12:53:26.337Z,8.60
2022-12-14T12:56:05.779Z,7.93
2022-12-14T12:58:35.314Z,7.38
2022-12-14T13:01:23.780Z,7.72
2022-12-14T13:04:01.631Z,7.10
2022-12-14T13:06:41.628Z,7.68
2022-12-14T13:09:40.767Z,8.15
2022-12-14T13:12:40.600Z,7.70
2022-12-14T13:15:43.657Z,7.80
2022-12-14T13:19:18.611Z,9.07
2022-12-14T13:21:39.157Z,9.18
2022-12-14T13:24:17.643Z,8.38
2022-12-14T13:27:22.068Z,7.68
2022-12-14T13:30:19.630Z,7.75
2022-12-14T13:33:24.305Z,7.20
2022-12-14T13:36:19.634Z,7.45
2022-12-14T13:39:30.692Z,7.68
2022-12-14T13:42:08.198Z,7.82
2022-12-14T13:44:55.729Z,8.10
2022-12-14T13:47:35.686Z,7.90
2022-12-14T13:50:35.479Z,9.18
2022-12-14T13:53:03.313Z,7.18
2022-12-14T13:55:58.712Z,7.35
2022-12-14T13:58:46.814Z,7.22
2022-12-14T14:01:21.753Z,8.00
2022-12-14T14:03:58.816Z,7.05
2022-12-14T14:06:37.995Z,7.00
2022-12-14T14:09:30.743Z,8.13
2022-12-14T14:14:46.749Z,7.10
2022-12-14T14:17:23.757Z,7.57
2022-12-14T14:19:59.830Z,6.82
2022-12-14T14:22:29.898Z,6.72
2022-12-14T14:25:12.840Z,6.75
2022-12-14T14:27:50.620Z,6.35
2022-12-14T14:30:42.739Z,7.75
2022-12-14T14:33:47.248Z,6.07
2022-12-14T14:36:42.659Z,6.95
2022-12-14T14:42:59.222Z,7.53
2022-12-14T14:45:55.784Z,9.00
2022-12-14T14:48:34.879Z,10.10
2022-12-14T14:51:18.888Z,9.63
2022-12-14T14:53:46.485Z,9.25
2022-12-14T14:56:35.792Z,10.48
2022-12-14T14:59:29.741Z,9.85
2022-12-14T15:02:06.874Z,9.80
2022-12-14T15:04:57.036Z,9.40
2022-12-14T15:07:38.802Z,10.23
2022-12-14T15:10:24.243Z,8.38
2022-12-14T15:13:25.906Z,10.77
2022-12-14T15:15:56.275Z,9.40
2022-12-14T15:18:37.790Z,9.80
2022-12-14T15:21:06.563Z,9.98
2022-12-14T15:23:49.505Z,9.98
2022-12-14T15:26:28.868Z,9.57
2022-12-14T15:29:06.858Z,10.15
2022-12-14T15:31:41.866Z,11.50
2022-12-14T15:34:22.863Z,10.48
2022-12-14T15:36:50.706Z,10.15
2022-12-14T15:39:44.811Z,10.00
2022-12-14T15:42:21.881Z,10.02
2022-12-14T15:45:00.817Z,9.55
2022-12-14T15:47:29.998Z,11.93
2022-12-14T15:50:22.880Z,10.25
2022-12-14T15:52:57.882Z,11.77
2022-12-14T15:55:42.706Z,9.98
2022-12-14T15:58:49.860Z,10.55
2022-12-14T16:01:51.747Z,8.93
2022-12-14T16:04:30.841Z,7.80
2022-12-14T16:07:19.990Z,8.52
2022-12-14T16:09:51.338Z,7.72
2022-12-14T16:12:46.888Z,7.80
2022-12-14T16:15:25.951Z,8.32
2022-12-14T16:18:06.857Z,8.52
2022-12-14T16:20:37.917Z,11.20
2022-12-14T16:23:34.459Z,10.65
2022-12-14T16:26:21.925Z,9.30
2022-12-14T16:28:55.877Z,9.98
2022-12-14T16:31:31.042Z,9.65
2022-12-14T16:34:19.402Z,9.52
2022-12-14T16:37:30.518Z,21.23
2022-12-14T16:39:47.890Z,15.35
2022-12-14T16:42:30.924Z,15.07
2022-12-14T16:44:57.751Z,16.30
2022-12-14T16:47:34.932Z,15.55
2022-12-14T16:50:11.475Z,13.95
2022-12-14T16:52:51.010Z,13.18
2022-12-14T16:55:20.155Z,12.82
2022-12-14T16:57:59.921Z,13.73
2022-12-14T17:00:35.971Z,11.30
2022-12-14T17:03:27.155Z,12.88
2022-12-14T17:06:04.920Z,11.13
2022-12-14T17:08:35.639Z,11.02
2022-12-14T17:11:09.059Z,11.00
2022-12-14T17:13:35.877Z,10.57
2022-12-14T17:16:13.031Z,10.43
2022-12-14T17:18:41.660Z,11.25
2022-12-14T17:21:30.005Z,11.35
2022-12-14T17:23:57.675Z,10.80
2022-12-14T17:26:39.952Z,11.32
2022-12-14T17:31:47.738Z,11.23
2022-12-14T17:34:24.019Z,11.40
2022-12-14T17:36:51.090Z,10.88
2022-12-14T17:39:25.031Z,11.10
2022-12-14T17:41:59.984Z,10.43
2022-12-14T17:44:34.012Z,10.50
2022-12-14T17:47:07.066Z,12.32
2022-12-14T17:49:34.344Z,16.23
2022-12-14T17:52:21.085Z,13.43
2022-12-14T17:54:48.099Z,18.67
2022-12-14T17:57:30.034Z,18.92
2022-12-14T18:00:15.508Z,15.57
2022-12-14T18:02:53.145Z,15.30
2022-12-14T18:05:28.015Z,15.45
2022-12-14T18:08:04.055Z,17.27
2022-12-14T18:10:31.378Z,17.40
2022-12-14T18:13:05.011Z,16.23
2022-12-14T18:15:37.697Z,19.40
2022-12-14T18:18:12.302Z,20.00
2022-12-14T18:20:41.730Z,23.55
2022-12-14T18:23:25.143Z,27.05
2022-12-14T18:26:04.108Z,25.52
2022-12-14T18:28:38.017Z,31.45
2022-12-14T18:31:14.228Z,31.33
2022-12-14T18:33:43.169Z,41.30
2022-12-14T18:36:18.189Z,38.63
2022-12-14T18:38:52.196Z,31.08
2022-12-14T18:41:23.358Z,31.38
2022-12-14T18:43:57.142Z,28.52
2022-12-14T18:46:24.927Z,24.20
2022-12-14T18:48:58.191Z,22.67
2022-12-14T18:51:26.744Z,21.02
2022-12-14T18:54:02.096Z,20.55
2022-12-14T18:56:29.848Z,19.83
2022-12-14T18:59:22.255Z,16.13
2022-12-14T19:01:49.820Z,15.70
2022-12-14T19:04:23.295Z,15.98
2022-12-14T19:06:57.456Z,13.35
2022-12-14T19:09:31.466Z,13.85
2022-12-14T19:11:58.433Z,15.68
2022-12-14T19:14:32.388Z,12.48
2022-12-14T19:16:59.255Z,12.75
2022-12-14T19:19:38.075Z,12.30
2022-12-14T19:22:08.273Z,11.32
2022-12-14T19:24:46.540Z,10.60
2022-12-14T19:27:42.594Z,12.65
2022-12-14T19:30:23.252Z,14.50
2022-12-14T19:33:02.171Z,13.80
2022-12-14T19:35:35.276Z,15.60
2022-12-14T19:38:02.316Z,14.13
2022-12-14T19:40:35.221Z,14.93
2022-12-14T19:43:08.252Z,15.90
2022-12-14T19:45:41.251Z,14.18
2022-12-14T19:48:14.254Z,12.95
2022-12-14T19:50:49.524Z,12.50
2022-12-14T19:53:21.579Z,12.27
2022-12-14T19:56:00.239Z,14.18
2022-12-14T19:58:28.491Z,13.98
2022-12-14T20:01:02.238Z,13.73
2022-12-14T20:03:35.927Z,14.38
2022-12-14T20:06:12.284Z,13.75
2022-12-14T20:08:39.280Z,12.93
2022-12-14T20:11:15.248Z,12.13
2022-12-14T20:13:42.277Z,11.73
2022-12-14T20:16:23.308Z,11.18
2022-12-14T20:18:50.459Z,11.32
2022-12-14T20:21:22.150Z,12.30
2022-12-14T20:23:57.299Z,13.23
2022-12-14T20:26:24.890Z,11.55
2022-12-14T20:29:01.290Z,10.75
2022-12-14T20:31:35.357Z,11.23
2022-12-14T20:34:04.807Z,10.98
2022-12-14T20:36:38.278Z,11.70
2022-12-14T20:39:05.769Z,10.32
2022-12-14T20:41:40.274Z,9.30
2022-12-14T20:44:11.924Z,9.88
2022-12-14T20:46:48.353Z,11.00
2022-12-14T20:49:25.332Z,11.20
2022-12-14T20:51:52.246Z,10.88
2022-12-14T20:54:20.242Z,9.85
2022-12-14T20:56:53.292Z,10.02
2022-12-14T20:59:26.322Z,9.07
2022-12-14T21:01:56.600Z,9.02
2022-12-14T21:04:23.719Z,9.10
2022-12-14T21:06:57.302Z,8.75
2022-12-14T21:09:24.149Z,10.70
2022-12-14T21:12:16.358Z,8.48
2022-12-14T21:14:43.397Z,9.65
2022-12-14T21:17:17.345Z,9.68
2022-12-14T21:19:50.408Z,8.50
2022-12-14T21:22:26.654Z,7.82
2022-12-14T21:25:09.006Z,8.55
2022-12-14T21:27:47.658Z,8.57
2022-12-14T21:30:14.623Z,8.45
2022-12-14T21:32:43.741Z,8.55
2022-12-14T21:35:17.318Z,9.18
2022-12-14T21:37:51.491Z,8.80
2022-12-14T21:40:39.201Z,9.25
2022-12-14T21:43:12.333Z,9.38
2022-12-14T21:45:39.226Z,8.82
2022-12-14T21:48:12.624Z,8.32
2022-12-14T21:50:42.421Z,9.48
2022-12-14T21:53:09.239Z,11.20
2022-12-14T21:55:42.376Z,9.52
2022-12-14T21:58:18.637Z,10.07
2022-12-14T22:00:52.542Z,9.00
2022-12-14T22:03:19.381Z,9.27
2022-12-14T22:05:59.674Z,9.13
2022-12-14T22:08:26.563Z,8.40
2022-12-14T22:10:53.420Z,8.60
2022-12-14T22:13:26.826Z,8.90
2022-12-14T22:15:54.894Z,9.02
2022-12-14T22:18:21.738Z,9.18
2022-12-14T22:20:56.392Z,9.40
2022-12-14T22:23:30.672Z,8.60
2022-12-14T22:26:00.412Z,8.57
2022-12-14T22:28:27.187Z,8.98
2022-12-14T22:31:00.650Z,9.05
2022-12-14T22:33:30.472Z,9.02
2022-12-14T22:36:09.433Z,8.93
2022-12-14T22:38:36.228Z,10.05
2022-12-14T22:41:11.402Z,9.55
2022-12-14T22:43:47.018Z,10.32
2022-12-14T22:46:22.717Z,9.10
2022-12-14T22:48:49.554Z,9.85
2022-12-14T22:51:16.472Z,10.07
2022-12-14T22:53:51.555Z,9.68
2022-12-14T22:56:21.299Z,11.90
2022-12-14T22:59:03.705Z,11.85
2022-12-14T23:01:30.838Z,11.30
2022-12-14T23:03:58.655Z,11.40
2022-12-14T23:06:32.598Z,11.10
2022-12-14T23:09:18.272Z,10.95
2022-12-14T23:12:11.904Z,10.63
2022-12-14T23:14:58.043Z,10.68
2022-12-14T23:17:54.754Z,10.35
2022-12-14T23:23:38.747Z,9.23
2022-12-14T23:26:24.036Z,9.05
2022-12-14T23:29:15.745Z,8.80
2022-12-14T23:32:00.948Z,8.57
2022-12-14T23:34:52.491Z,10.25
2022-12-14T23:37:44.504Z,9.77
2022-12-14T23:40:30.372Z,11.68
2022-12-14T23:43:22.485Z,10.23
2022-12-14T23:46:08.037Z,10.07
2022-12-14T23:48:59.623Z,10.38
2022-12-14T23:51:45.312Z,9.68
2022-12-14T23:54:37.520Z,9.45
2022-12-14T23:57:26.039Z,10.50
